Impacts METAR Board
IDs:

KSSF - San Antonio/Stinson, TX, US

Updated at: 0100 UTC 01 Nov 2020
Potential Impact None Slight Moderate High
Time 31/13Z 31/14Z 31/15Z 31/16Z 31/17Z 31/18Z 31/19Z 31/20Z 31/21Z 31/22Z 31/23Z 01/00Z 01/01Z
Temp39 48 56 63 65 70 72 73 76 76 75 70 63
Dewpt37 41 43 42 43 40 39 38 39 39 41 41 43
Altim30.20 30.22 30.23 30.23 30.21 30.18 30.14 30.11 30.09 30.08 30.07 30.09 30.11
VIS10 10 10 10 10 10 10 10 10 10 10 10 10
CIG-- -- -- -- -- -- -- -- -- -- -- -- --
CoverCLRCLRCLRCLRCLRCLRCLRCLRCLRCLRCLRCLRCLR
FltCatVFRVFRVFRVFRVFRVFRVFRVFRVFRVFRVFRVFRVFR
WX--------------------------
WDir000140021019001502101801600
WSpd0 0 0 3 3 7 7 3 5 4 5 3 0
WGst-- -- -- -- -- -- -- -- -- -- -- -- --
Raw hourly METARs
KSSF 311253Z 00000KT 10SM CLR 04/03 A3020 RMK AO2 SLP231 T00390028 $
KSSF 311353Z 00000KT 10SM CLR 09/05 A3022 RMK AO2 SLP233 T00890050 $
KSSF 311453Z 00000KT 10SM CLR 13/06 A3023 RMK AO2 SLP237 T01330061 53009 $
KSSF 311553Z 14003KT 10SM CLR 17/06 A3023 RMK AO2 SLP234 T01720056 $
KSSF 311653Z VRB03KT 10SM CLR 18/06 A3021 RMK AO2 SLP229 T01830061 $
KSSF 311753Z 21007KT 10SM CLR 21/04 A3018 RMK AO2 SLP220 T02110044 10211 20039 58015 $
KSSF 311853Z 19007KT 10SM CLR 22/04 A3014 RMK AO2 SLP205 T02220039 $
KSSF 311953Z VRB03KT 10SM CLR 23/03 A3011 RMK AO2 SLP194 T02280033 $
KSSF 312053Z 15005KT 10SM CLR 24/04 A3009 RMK AO2 SLP187 T02440039 56031 $
KSSF 312153Z 21004KT 10SM CLR 24/04 A3008 RMK AO2 SLP182 T02440039 $
KSSF 312253Z 18005KT 10SM CLR 24/05 A3007 RMK AO2 SLP183 T02390050 $
KSSF 312353Z 16003KT 10SM CLR 21/05 A3009 RMK AO2 SLP187 T02110050 10250 20206 55001 $
KSSF 010053Z 00000KT 10SM CLR 17/06 A3011 RMK AO2 SLP197 T01720061 $